Data for 05/14/2018

Time Sea-Level Adjusted Pressure Absolute Pressure Temperature Relative Humidity Dew Point   
(mb) (inHg) (mb) (inHg) (C) (F) (%) (C) (F)
00:05 1022 30.18 851 25.13 8.6 47.5 64 2.1 35.9
00:10 1022 30.18 851 25.13 8.6 47.4 63 2 35.6
00:15 1022 30.18 851 25.13 8.6 47.5 64 2.1 35.8
00:20 1021 30.15 851 25.13 8.6 47.5 63 2.1 35.7
00:25 1021 30.15 851 25.13 8.6 47.6 63 2.1 35.7
00:30 1021 30.15 850 25.1 8.7 47.6 63 2 35.5
00:35 1021 30.15 850 25.1 8.8 47.9 63 2.2 35.9
00:40 1021 30.15 851 25.13 8.8 47.9 64 2.4 36.3
00:45 1022 30.18 851 25.13 8.7 47.7 64 2.4 36.3
00:50 1022 30.18 851 25.13 8.7 47.6 65 2.4 36.4
00:55 1021 30.15 851 25.13 8.7 47.7 65 2.5 36.4
01:00 1021 30.15 851 25.13 8.7 47.6 66 2.7 36.8
01:05 1021 30.15 851 25.13 8.6 47.4 68 3.1 37.6
01:10 1021 30.15 850 25.1 8.5 47.2 68 2.9 37.3
01:15 1021 30.15 850 25.1 8.5 47.3 68 3 37.4
01:20 1021 30.15 850 25.1 8.5 47.3 69 3.1 37.5
01:25 1021 30.15 850 25.1 8.4 47.1 70 3.2 37.8
01:30 1021 30.15 850 25.1 8.4 47.1 69 3 37.4
01:35 1021 30.15 851 25.13 8.4 47.1 70 3.1 37.7
01:40 1021 30.15 851 25.13 8.3 46.9 70 3.1 37.6
01:45 1021 30.15 851 25.13 8.2 46.7 71 3.2 37.7
01:50 1021 30.15 851 25.13 8.1 46.5 71 3.1 37.5
01:55 1021 30.15 851 25.13 8 46.4 71 3.1 37.7
02:00 1021 30.15 851 25.13 8 46.3 70 2.9 37.3
02:05 1021 30.15 851 25.13 7.9 46.2 70 2.8 37
02:10 1021 30.15 851 25.13 7.8 46.1 70 2.6 36.7
02:15 1021 30.15 851 25.13 7.8 46 70 2.6 36.8
02:20 1021 30.15 851 25.13 7.7 45.8 71 2.8 37
02:25 1021 30.15 850 25.1 7.4 45.4 72 2.7 36.9
02:30 1021 30.15 851 25.13 7.2 45 73 2.6 36.8
02:35 1021 30.15 850 25.1 7.2 44.9 71 2.3 36.2
02:40 1021 30.15 850 25.1 7.4 45.3 70 2.2 35.9
02:45 1021 30.15 851 25.13 7.5 45.4 69 2.2 36
02:50 1021 30.15 850 25.1 7.4 45.3 71 2.6 36.6
02:55 1021 30.15 850 25.1 7.3 45.2 74 2.9 37.3
03:00 1021 30.15 850 25.1 7.3 45.1 75 3 37.5
03:05 1021 30.15 850 25.1 7.2 45 75 3.1 37.5
03:10 1021 30.15 851 25.13 7.1 44.9 76 3.2 37.7
03:15 1021 30.15 851 25.13 7.1 44.7 76 3.1 37.6
03:20 1021 30.15 851 25.13 7 44.5 76 3 37.4
03:25 1021 30.15 851 25.13 6.8 44.2 77 3 37.5
03:30 1022 30.18 851 25.13 6.8 44.2 76 2.9 37.2
03:35 1021 30.15 851 25.13 6.7 44.1 76 2.8 37.1
03:40 1021 30.15 851 25.13 6.7 44 77 2.9 37.2
03:45 1021 30.15 851 25.13 6.7 44 76 2.8 37
03:50 1021 30.15 851 25.13 6.5 43.8 76 2.6 36.8
03:55 1022 30.18 851 25.13 6.4 43.6 76 2.5 36.5
04:00 1022 30.18 851 25.13 6.1 42.9 77 2.4 36.2
04:05 1022 30.18 851 25.13 5.9 42.5 78 2.3 36.1
04:10 1022 30.18 851 25.13 5.6 42.2 79 2.2 36
04:15 1022 30.18 851 25.13 5.5 41.8 79 2.1 35.8
04:20 1022 30.18 851 25.13 5.4 41.8 78 1.9 35.5
04:25 1022 30.18 851 25.13 5.4 41.7 79 2 35.6
04:30 1022 30.18 851 25.13 5.2 41.4 79 2 35.5
04:35 1022 30.18 851 25.13 5.2 41.4 79 1.9 35.4
04:40 1022 30.18 851 25.13 5.2 41.4 80 2.1 35.7
04:45 1022 30.18 851 25.13 5.3 41.5 79 2 35.6
04:50 1022 30.18 851 25.13 5.4 41.8 78 1.9 35.4
04:55 1022 30.18 851 25.13 5.3 41.6 79 1.9 35.4
05:00 1022 30.18 851 25.13 5.3 41.5 77 1.6 35
05:05 1022 30.18 851 25.13 5.2 41.4 79 1.9 35.4
05:10 1022 30.18 851 25.13 4.7 40.5 80 1.5 34.8
05:15 1022 30.18 851 25.13 4.6 40.3 80 1.4 34.5
05:20 1022 30.18 851 25.13 4.4 40 80 1.4 34.5
05:25 1022 30.18 851 25.13 4.3 39.7 81 1.2 34.2
05:30 1022 30.18 851 25.13 4.4 39.9 79 1.1 34
05:35 1022 30.18 851 25.13 4.5 40.1 79 1.1 34
05:40 1022 30.18 851 25.13 4.5 40.1 78 1 33.8
05:45 1022 30.18 851 25.13 4.7 40.4 78 1.1 34
05:50 1022 30.18 851 25.13 4.6 40.3 78 1.1 34.1
05:55 1022 30.18 851 25.13 4.7 40.4 78 1.1 34
06:00 1022 30.18 851 25.13 4.5 40.1 79 1.2 34.1
06:05 1022 30.18 851 25.13 4.3 39.7 80 1.1 34
06:10 1022 30.18 851 25.13 4.1 39.3 81 1 33.9
06:15 1022 30.18 851 25.13 4 39.2 81 1.1 34
06:20 1022 30.18 851 25.13 4.1 39.4 80 1 33.8
06:25 1022 30.18 851 25.13 4.2 39.5 80 1.1 33.9
06:30 1022 30.18 851 25.13 4.2 39.5 80 1.1 33.9
06:35 1022 30.18 851 25.13 4.1 39.5 80 1.1 33.9
06:40 1022 30.18 851 25.13 4.1 39.4 80 1 33.9
06:45 1022 30.18 851 25.13 4.3 39.7 79 1 33.7
06:50 1022 30.18 851 25.13 4.5 40.1 79 1.2 34.2
06:55 1022 30.18 851 25.13 4.6 40.3 79 1.3 34.4
07:00 1022 30.18 851 25.13 4.7 40.5 79 1.3 34.3
07:05 1022 30.18 851 25.13 4.8 40.6 78 1.2 34.1
07:10 1022 30.18 851 25.13 4.8 40.7 77 1.2 34.2
07:15 1022 30.18 851 25.13 4.9 40.8 77 1.2 34.1
07:20 1022 30.18 851 25.13 5.1 41.1 77 1.4 34.4
07:25 1022 30.18 851 25.13 5.3 41.6 76 1.4 34.6
07:30 1022 30.18 851 25.13 5.5 41.9 76 1.5 34.8
07:35 1022 30.18 851 25.13 5.7 42.2 76 1.7 35.1
07:40 1022 30.18 851 25.13 5.9 42.6 76 2 35.6
07:45 1022 30.18 851 25.13 6.1 43 74 1.9 35.3
07:50 1022 30.18 852 25.16 6.1 42.9 75 2.1 35.7
07:55 1022 30.18 852 25.16 6.2 43.1 75 2.1 35.7
08:00 1022 30.18 851 25.13 6.3 43.4 75 2.2 35.9
08:05 1022 30.18 852 25.16 6.4 43.5 75 2.3 36.2
08:10 1022 30.18 852 25.16 6.7 44 75 2.5 36.6
08:15 1022 30.18 852 25.16 7 44.6 72 2.3 36.1
08:20 1022 30.18 852 25.16 7.4 45.2 70 2.3 36.2
08:25 1022 30.18 852 25.16 7.6 45.6 70 2.4 36.3
08:30 1022 30.18 852 25.16 7.8 46.1 68 2.3 36.2
08:35 1022 30.18 852 25.16 8.1 46.6 68 2.5 36.5
08:40 1022 30.18 852 25.16 8.6 47.4 65 2.5 36.4
08:45 1022 30.18 852 25.16 9.1 48.4 61 2.1 35.8
08:50 1022 30.18 852 25.16 9.5 49.1 61 2.3 36.2
08:55 1022 30.18 852 25.16 9.5 49 60 2.2 35.9
09:00 1022 30.18 852 25.16 10.1 50.1 57 2.1 35.8
09:05 1022 30.18 852 25.16 10.6 51 57 2.4 36.3
09:10 1022 30.18 852 25.16 10.7 51.3 55 2.2 35.9
09:15 1022 30.18 852 25.16 11.5 52.6 53 2.2 35.9
09:20 1022 30.18 852 25.16 11.9 53.3 53 2.6 36.7
09:25 1022 30.18 852 25.16 11.8 53.3 53 2.5 36.6
09:30 1022 30.18 852 25.16 12.7 54.9 50 2.6 36.7
09:35 1022 30.18 852 25.16 12.8 55.1 50 2.7 36.8
09:40 1022 30.18 852 25.16 13.6 56.4 48 3 37.4
09:45 1022 30.18 852 25.16 12.9 55.3 53 3.6 38.4
09:50 1022 30.18 852 25.16 12.3 54.2 52 2.8 37
09:55 1022 30.18 852 25.16 12.3 54.2 54 3.4 38.1
10:00 1022 30.18 852 25.16 13 55.3 50 2.9 37.3
10:05 1022 30.18 852 25.16 13.8 56.8 49 3.2 37.7
10:10 1022 30.18 852 25.16 14 57.2 48 3.1 37.6
10:15 1022 30.18 852 25.16 13.9 57.1 48 3.1 37.6
10:20 1022 30.18 851 25.13 13.6 56.5 50 3.5 38.3
10:25 1022 30.18 851 25.13 13.5 56.2 49 3.1 37.6
10:30 1022 30.18 851 25.13 13.8 56.8 49 3.4 38.2
10:35 1022 30.18 851 25.13 13.9 57 47 2.8 37.1
10:40 1022 30.18 851 25.13 14.9 58.7 45 3.2 37.8
10:45 1022 30.18 851 25.13 15.1 59.2 46 3.6 38.5
10:50 1022 30.18 851 25.13 14.6 58.2 47 3.4 38.1
10:55 1022 30.18 851 25.13 14.7 58.5 43 2.4 36.3
11:00 1022 30.18 851 25.13 15.3 59.5 46 3.9 39
11:05 1022 30.18 851 25.13 14.7 58.4 46 3.2 37.8
11:10 1022 30.18 851 25.13 14.9 58.8 47 3.7 38.7
11:15 1022 30.18 851 25.13 13.9 57 48 3.3 37.9
11:20 1022 30.18 851 25.13 14.4 58 44 2.5 36.5
11:25 1022 30.18 851 25.13 15.2 59.3 40 1.6 34.8
11:30 1022 30.18 851 25.13 15.6 60.1 40 2.3 36.1
11:35 1022 30.18 851 25.13 15.1 59.1 41 2.1 35.7
11:40 1022 30.18 851 25.13 15.7 60.3 40 2.2 36
11:45 1022 30.18 851 25.13 15.8 60.4 39 1.9 35.5
11:50 1022 30.18 851 25.13 16.2 61.1 42 3.4 38.1
11:55 1022 30.18 851 25.13 15.9 60.5 40 2.3 36.1
12:00 1022 30.18 851 25.13 16.7 62 38 2.5 36.5
12:05 1022 30.18 851 25.13 16.4 61.4 39 2.6 36.6
12:10 1022 30.18 851 25.13 16.4 61.5 41 3.1 37.6
12:15 1022 30.18 851 25.13 16.2 61.2 40 2.7 36.9
12:20 1022 30.18 851 25.13 16.8 62.3 38 2.6 36.8
12:25 1022 30.18 851 25.13 17.1 62.7 38 2.9 37.3
12:30 1022 30.18 851 25.13 16.7 62 41 3.5 38.3
12:35 1022 30.18 851 25.13 15.8 60.4 43 3.2 37.8
12:40 1022 30.18 851 25.13 15.7 60.3 44 3.6 38.5
12:45 1022 30.18 851 25.13 14.8 58.6 45 3 37.4
12:50 1022 30.18 851 25.13 15.4 59.7 45 3.5 38.3
12:55 1022 30.18 851 25.13 15.8 60.4 46 4.4 40
13:00 1022 30.18 851 25.13 15.8 60.4 43 3.5 38.2
13:05 1022 30.18 851 25.13 15.8 60.5 47 4.6 40.3
13:10 1022 30.18 851 25.13 15.3 59.5 44 3.1 37.5
13:15 1022 30.18 851 25.13 15.8 60.4 44 3.7 38.6
13:20 1022 30.18 851 25.13 16.7 62.1 41 3.5 38.4
13:25 1022 30.18 851 25.13 16.9 62.4 42 4.1 39.4
13:30 1022 30.18 851 25.13 16.8 62.2 41 3.5 38.3
13:35 1022 30.18 851 25.13 17.2 63 39 3.4 38.2
13:40 1022 30.18 851 25.13 17 62.5 41 3.8 38.8
13:45 1021 30.15 851 25.13 18.4 65.1 36 3.1 37.6
13:50 1021 30.15 851 25.13 18.7 65.7 36 3.6 38.4
13:55 1021 30.15 851 25.13 18.6 65.4 37 3.6 38.6
14:00 1021 30.15 851 25.13 18.2 64.7 37 3.4 38.1
14:05 1021 30.15 851 25.13 18.8 65.8 38 4.3 39.7
14:10 1021 30.15 851 25.13 18.8 65.8 36 3.6 38.5
14:15 1021 30.15 851 25.13 18.2 64.8 37 3.5 38.3
14:20 1021 30.15 851 25.13 18.6 65.5 36 3.3 38
14:25 1021 30.15 851 25.13 19.5 67.2 33 3.1 37.7
14:30 1021 30.15 851 25.13 18.2 64.7 39 4 39.3
14:35 1021 30.15 851 25.13 18.3 65 37 3.3 38
14:40 1021 30.15 851 25.13 18.4 65.1 38 4 39.3
14:45 1021 30.15 851 25.13 17.6 63.7 40 4.1 39.4
14:50 1021 30.15 850 25.1 17.8 64.1 38 3.4 38.2
14:55 1021 30.15 850 25.1 19.4 67 34 3.3 37.9
15:00 1021 30.15 850 25.1 19.9 67.7 36 4.3 39.8
15:05 1021 30.15 850 25.1 19.3 66.8 35 3.6 38.5
15:10 1021 30.15 850 25.1 19.5 67 35 3.8 38.8
15:15 1021 30.15 850 25.1 19.1 66.4 37 4.2 39.6
15:20 1021 30.15 850 25.1 19.3 66.7 35 3.7 38.7
15:25 1021 30.15 850 25.1 19.9 67.8 33 3.5 38.3
15:30 1021 30.15 850 25.1 19.5 67.1 37 4.7 40.5
15:35 1021 30.15 850 25.1 18.3 64.9 36 2.9 37.2
15:40 1021 30.15 850 25.1 19.5 67.1 33 2.8 37
15:45 1021 30.15 850 25.1 20.3 68.6 31 2.7 36.8
15:50 1021 30.15 850 25.1 20 68 34 3.6 38.5
15:55 1021 30.15 850 25.1 19.2 66.5 34 3 37.5
16:00 1021 30.15 850 25.1 18.9 66.1 36 3.6 38.5
16:05 1021 30.15 850 25.1 18.5 65.4 38 3.9 39.1
16:10 1021 30.15 850 25.1 17.8 64.1 38 3.3 38
16:15 1021 30.15 850 25.1 19.3 66.7 33 2.5 36.6
16:20 1021 30.15 850 25.1 19.9 67.8 32 2.9 37.2
16:25 1021 30.15 850 25.1 19.7 67.5 30 1.9 35.3
16:30 1020 30.12 850 25.1 19 66.1 32 2.2 36
16:35 1020 30.12 850 25.1 18.1 64.7 36 3.1 37.6
16:40 1020 30.12 850 25.1 17.7 63.9 35 2.1 35.8
16:45 1020 30.12 850 25.1 17.5 63.5 35 2 35.6
16:50 1020 30.12 850 25.1 17.4 63.3 35 1.9 35.5
16:55 1020 30.12 850 25.1 18.1 64.6 32 1.1 34.1
17:00 1020 30.12 849 25.07 19.1 66.3 30 1.4 34.5
17:05 1020 30.12 849 25.07 19 66.2 29 0.6 33
17:10 1020 30.12 849 25.07 19.5 67.1 27 0.3 32.6
17:15 1020 30.12 849 25.07 19.5 67.2 28 0.6 33.1
17:20 1020 30.12 849 25.07 19.4 66.9 29 1 33.8
17:25 1020 30.12 849 25.07 18.9 66 30 1.1 33.9
17:30 1020 30.12 849 25.07 18.4 65.1 31 1.1 34
17:35 1020 30.12 849 25.07 18.1 64.6 31 1 33.7
17:40 1020 30.12 849 25.07 18 64.5 31 0.8 33.5
17:45 1020 30.12 849 25.07 18.3 65 30 0.6 33.2
17:50 1020 30.12 849 25.07 18.7 65.6 30 0.9 33.7
17:55 1020 30.12 849 25.07 18.3 64.9 30 0.7 33.3
18:00 1020 30.12 849 25.07 17.9 64.1 31 0.6 33
18:05 1020 30.12 849 25.07 17.6 63.7 31 0.4 32.8
18:10 1020 30.12 849 25.07 17.4 63.4 31 0.3 32.5
18:15 1020 30.12 849 25.07 17.2 63 31 -0.1 31.8
18:20 1020 30.12 849 25.07 17.2 62.9 30 -0.3 31.5
18:25 1020 30.12 849 25.07 17.5 63.4 29 -0.7 30.7
18:30 1020 30.12 849 25.07 17.7 63.8 28 -0.9 30.3
18:35 1020 30.12 849 25.07 17.6 63.6 29 -0.7 30.7
18:40 1020 30.12 849 25.07 17.5 63.5 29 -0.6 30.8
18:45 1020 30.12 849 25.07 17.8 64 29 -0.6 31
18:50 1020 30.12 849 25.07 18 64.3 29 -0.2 31.6
18:55 1020 30.12 849 25.07 17.4 63.4 30 -0.3 31.5
19:00 1020 30.12 849 25.07 17.2 63 30 -0.3 31.5
19:05 1020 30.12 849 25.07 17 62.6 31 -0.3 31.5
19:10 1020 30.12 849 25.07 16.9 62.4 31 -0.1 31.8
19:15 1020 30.12 849 25.07 17 62.5 31 -0.3 31.4
19:20 1020 30.12 849 25.07 17.1 62.8 31 -0 32
19:25 1020 30.12 849 25.07 17.1 62.7 31 0.1 32.1
19:30 1020 30.12 849 25.07 17 62.6 32 0.2 32.3
19:35 1020 30.12 849 25.07 16.9 62.4 32 0.4 32.7
19:40 1020 30.12 849 25.07 16.7 62.1 33 0.3 32.6
19:45 1020 30.12 849 25.07 16.6 61.9 33 0.3 32.5
19:50 1020 30.12 849 25.07 16.5 61.8 33 0.3 32.5
19:55 1020 30.12 849 25.07 16.5 61.6 33 0.3 32.6
20:00 1020 30.12 849 25.07 16.4 61.5 33 0 32
20:05 1020 30.12 849 25.07 16.3 61.3 33 0 32
20:10 1020 30.12 849 25.07 16.1 61 33 -0 32
20:15 1020 30.12 849 25.07 16 60.9 33 0 32.1
20:20 1020 30.12 849 25.07 15.9 60.6 34 0.3 32.5
20:25 1020 30.12 849 25.07 15.7 60.3 36 0.6 33.1
20:30 1020 30.12 849 25.07 15.5 59.9 37 1 33.8
20:35 1020 30.12 849 25.07 15.3 59.5 38 1.3 34.3
20:40 1020 30.12 849 25.07 15.1 59.1 39 1.4 34.6
20:45 1020 30.12 849 25.07 14.8 58.6 40 1.4 34.5
20:50 1020 30.12 849 25.07 14.6 58.2 40 1.2 34.2
20:55 1020 30.12 849 25.07 14.5 58 40 1 33.9
21:00 1020 30.12 850 25.1 14.4 57.9 41 1.4 34.5
21:05 1020 30.12 850 25.1 14.1 57.4 43 1.7 35
21:10 1020 30.12 850 25.1 14.1 57.3 42 1.5 34.7
21:15 1020 30.12 850 25.1 14.1 57.4 43 1.7 35
21:20 1020 30.12 850 25.1 14 57.2 43 1.8 35.2
21:25 1020 30.12 850 25.1 13.9 57 44 1.9 35.4
21:30 1020 30.12 850 25.1 13.8 56.8 45 2 35.6
21:35 1020 30.12 850 25.1 13.7 56.6 45 2 35.6
21:40 1020 30.12 850 25.1 13.6 56.5 45 2.1 35.7
21:45 1020 30.12 850 25.1 13.6 56.5 45 2.1 35.7
21:50 1020 30.12 850 25.1 13.5 56.3 46 2.3 36.1
21:55 1020 30.12 850 25.1 13.4 56 47 2.3 36.2
22:00 1021 30.15 850 25.1 13.1 55.5 49 2.6 36.7
22:05 1021 30.15 850 25.1 12.7 54.9 50 2.7 36.9
22:10 1021 30.15 850 25.1 12.4 54.3 52 2.8 37
22:15 1021 30.15 850 25.1 12.2 54 52 2.7 36.9
22:20 1021 30.15 850 25.1 12.3 54.2 50 2.3 36.2
22:25 1021 30.15 850 25.1 12.7 54.9 49 2.2 36
22:30 1021 30.15 850 25.1 13 55.3 48 2.3 36.1
22:35 1021 30.15 850 25.1 13.1 55.5 48 2.5 36.5
22:40 1021 30.15 850 25.1 13 55.4 48 2.4 36.3
22:45 1021 30.15 850 25.1 12.9 55.2 49 2.5 36.5
22:50 1021 30.15 850 25.1 12.9 55.2 49 2.6 36.7
22:55 1021 30.15 850 25.1 12.4 54.4 52 3 37.5
23:00 1021 30.15 850 25.1 11.5 52.7 56 3.2 37.8
23:05 1021 30.15 850 25.1 10.8 51.4 59 3.1 37.6
23:10 1021 30.15 850 25.1 10.3 50.5 60 2.9 37.2
23:15 1021 30.15 850 25.1 10 50 61 3 37.3
23:20 1021 30.15 850 25.1 9.7 49.4 63 2.9 37.3
23:25 1021 30.15 850 25.1 9.5 49.2 63 2.9 37.2
23:30 1021 30.15 850 25.1 9.5 49.2 63 2.9 37.1
23:35 1021 30.15 850 25.1 9.4 49 64 2.9 37.3
23:40 1021 30.15 850 25.1 9.2 48.5 65 2.9 37.3
23:45 1021 30.15 850 25.1 9 48.3 65 2.8 37
23:50 1021 30.15 850 25.1 9.1 48.4 64 2.8 37
23:55 1021 30.15 850 25.1 9.1 48.3 65 2.9 37.2
24:00 1021 30.15 850 25.1 9 48.2 65 2.9 37.2